Terminal Aerodrome Forecast
Issued by NWS

Home | Current Version | Previous Version | Text Only | Print | Product List | Glossary On
Versions: 1 2 3 4 5 6 7 8 9 10 11 12 13 14 15 16 17 18
000
FTUS41 KRNK 260531
TAFLWB
TAF
KLWB 260531Z 2606/2706 27006KT P6SM SCT025 WS014/30040KT
      TEMPO 2606/2607 BKN025
     FM260800 28005KT P6SM SCT015
     FM261600 28010G18KT P6SM SKC
     FM262200 30006KT P6SM SKC=

USA.gov is the U.S. government's official web portal to all federal, state and local government web resources and services.